Flight Track Log - Related Links

Times and Time Zones

All times are in EDT time to prevent confusion due to time zone crossing. See the N813BB flight status page for this flight to view local times or setup timezone preferences in your user account.

Time Position Orientation Groundspeed Altitude Reporting Facility
EDT Latitude Longitude Course Direction KTS MPH feet Rate Location/Type
Sun 12:59:03 AM 30.1806 -97.7528 327° Northwest 253 291 8,200  Level Houston Center
Sun 01:00:03 AM 30.2525 -97.7786 343° North 266 306 10,700 1,900 Climbing Houston Center
Sun 01:01:03 AM 30.3264 -97.8072 342° North 274 315 12,000 650 Climbing Houston Center
Sun 01:02:00 AM 30.5208 -97.6364 327° Northwest  Level FlightAware Approximate
Sun 01:02:03 AM 30.4106 -97.8411 341° North 310 357 12,000  Level Houston Center
Sun 01:03:00 AM 30.5783 -97.6795 327° Northwest  Level FlightAware Approximate
Sun 01:03:03 AM 30.4972 -97.8736 342° North 321 369 12,000  Level Houston Center
Sun 01:04:03 AM 30.5847 -97.9078 341° North 326 375 12,000  Level Houston Center
Sun 01:05:04 AM 30.6722 -97.9417 342° North 328 377 12,000  Level Houston Center
Sun 01:06:04 AM 30.7606 -97.9764 341° North 328 377 12,000  Level Houston Center
Sun 01:07:04 AM 30.8492 -98.0100 342° North 328 377 12,000  Level Houston Center
Sun 01:08:04 AM 30.9378 -98.0447 341° North 330 380 12,000  Level Houston Center
Sun 01:09:04 AM 31.0269 -98.0794 342° North 331 381 12,000  Level Houston Center
Sun 01:10:04 AM 31.1158 -98.1144 341° North 332 382 12,000  Level Houston Center
Sun 01:11:04 AM 31.2050 -98.1489 342° North 333 383 12,000  Level Houston Center
Sun 01:12:04 AM 31.2967 -98.1803 344° North 338 389 12,000  Level Houston Center
Sun 01:13:04 AM 31.3869 -98.2092 345° North 338 389 12,000  Level Houston Center
Sun 01:14:05 AM 31.4811 -98.2306 349° North 340 391 12,000  Level Houston Center
Sun 01:15:05 AM 31.5714 -98.2547 347° North 339 390 12,000  Level Houston Center
Sun 01:16:05 AM 31.6633 -98.2764 349° North 339 390 12,000 -50 Level Houston Center
Sun 01:17:05 AM 31.7550 -98.3011 347° North 338 389 11,900 -250 Descending Houston Center
Sun 01:18:05 AM 31.8486 -98.3236 348° North 338 389 11,500 -400 Descending Houston Center

Login

Don't have an account? Register now (free) for customized features, flight alerts, and more!